sensor_id;sensor_type;location;lat;lon;timestamp;pressure;altitude;pressure_sealevel;temperature;humidity
48862;BME280;34681;49.188;-0.374;2023-03-20T00:00:49;101958.09;;;11.60;58.22
48862;BME280;34681;49.188;-0.374;2023-03-20T00:03:15;101955.47;;;11.70;57.83
48862;BME280;34681;49.188;-0.374;2023-03-20T00:05:41;101958.69;;;11.64;57.98
48862;BME280;34681;49.188;-0.374;2023-03-20T00:08:07;101962.69;;;11.71;57.77
48862;BME280;34681;49.188;-0.374;2023-03-20T00:10:40;101959.34;;;11.78;57.87
48862;BME280;34681;49.188;-0.374;2023-03-20T00:13:11;101956.72;;;11.77;57.63
48862;BME280;34681;49.188;-0.374;2023-03-20T00:15:42;101954.84;;;11.66;57.92
48862;BME280;34681;49.188;-0.374;2023-03-20T00:18:13;101956.72;;;11.77;57.37
48862;BME280;34681;49.188;-0.374;2023-03-20T00:20:39;101951.25;;;11.77;57.42
48862;BME280;34681;49.188;-0.374;2023-03-20T00:23:05;101954.09;;;11.75;57.67
48862;BME280;34681;49.188;-0.374;2023-03-20T00:25:30;101946.47;;;11.57;58.15
48862;BME280;34681;49.188;-0.374;2023-03-20T00:27:56;101942.91;;;11.67;57.83
48862;BME280;34681;49.188;-0.374;2023-03-20T00:30:28;101941.53;;;11.84;57.48
48862;BME280;34681;49.188;-0.374;2023-03-20T00:32:55;101937.81;;;11.85;56.83
48862;BME280;34681;49.188;-0.374;2023-03-20T00:35:29;101929.66;;;11.72;57.40
48862;BME280;34681;49.188;-0.374;2023-03-20T00:37:56;101927.66;;;11.74;57.10
48862;BME280;34681;49.188;-0.374;2023-03-20T00:40:26;101923.81;;;11.66;57.76
48862;BME280;34681;49.188;-0.374;2023-03-20T00:42:58;101922.06;;;11.76;57.44
48862;BME280;34681;49.188;-0.374;2023-03-20T00:45:24;101932.69;;;11.80;57.13
48862;BME280;34681;49.188;-0.374;2023-03-20T00:47:50;101931.28;;;11.75;57.43
48862;BME280;34681;49.188;-0.374;2023-03-20T00:50:28;101930.31;;;11.76;57.59
48862;BME280;34681;49.188;-0.374;2023-03-20T00:52:56;101932.69;;;11.80;57.38
48862;BME280;34681;49.188;-0.374;2023-03-20T00:55:23;101925.91;;;11.73;57.59
48862;BME280;34681;49.188;-0.374;2023-03-20T00:57:58;101924.31;;;11.71;57.74
48862;BME280;34681;49.188;-0.374;2023-03-20T01:00:40;101926.91;;;11.72;57.67
48862;BME280;34681;49.188;-0.374;2023-03-20T01:03:18;101926.56;;;11.77;57.63
48862;BME280;34681;49.188;-0.374;2023-03-20T01:05:44;101928.94;;;11.81;57.51
48862;BME280;34681;49.188;-0.374;2023-03-20T01:08:19;101921.59;;;11.82;57.36
48862;BME280;34681;49.188;-0.374;2023-03-20T01:10:46;101930.91;;;11.79;57.40
48862;BME280;34681;49.188;-0.374;2023-03-20T01:13:24;101924.03;;;11.74;57.61
48862;BME280;34681;49.188;-0.374;2023-03-20T01:15:51;101915.81;;;11.74;57.73
48862;BME280;34681;49.188;-0.374;2023-03-20T01:18:18;101924.31;;;11.82;57.54
48862;BME280;34681;49.188;-0.374;2023-03-20T01:20:45;101916.22;;;11.69;57.95
48862;BME280;34681;49.188;-0.374;2023-03-20T01:23:11;101924.03;;;11.74;57.74
48862;BME280;34681;49.188;-0.374;2023-03-20T01:25:37;101928.06;;;11.81;57.26
48862;BME280;34681;49.188;-0.374;2023-03-20T01:28:03;101923.44;;;11.81;57.20
48862;BME280;34681;49.188;-0.374;2023-03-20T01:30:35;101921.06;;;11.66;57.61
48862;BME280;34681;49.188;-0.374;2023-03-20T01:33:04;101917.09;;;11.70;57.75
48862;BME280;34681;49.188;-0.374;2023-03-20T01:35:30;101917.44;;;11.65;58.18
48862;BME280;34681;49.188;-0.374;2023-03-20T01:37:56;101907.00;;;11.59;58.15
48862;BME280;34681;49.188;-0.374;2023-03-20T01:40:30;101915.09;;;11.72;57.78
48862;BME280;34681;49.188;-0.374;2023-03-20T01:42:57;101911.22;;;11.74;57.82
48862;BME280;34681;49.188;-0.374;2023-03-20T01:45:27;101916.59;;;11.76;57.79
48862;BME280;34681;49.188;-0.374;2023-03-20T01:47:54;101912.06;;;11.75;57.94
48862;BME280;34681;49.188;-0.374;2023-03-20T01:50:31;101915.09;;;11.83;57.73
48862;BME280;34681;49.188;-0.374;2023-03-20T01:53:07;101911.13;;;11.87;57.46
48862;BME280;34681;49.188;-0.374;2023-03-20T01:55:35;101910.97;;;11.77;57.71
48862;BME280;34681;49.188;-0.374;2023-03-20T01:58:04;101908.50;;;11.86;57.88
48862;BME280;34681;49.188;-0.374;2023-03-20T02:00:32;101905.25;;;11.92;57.75
48862;BME280;34681;49.188;-0.374;2023-03-20T02:02:58;101912.84;;;11.88;57.98
48862;BME280;34681;49.188;-0.374;2023-03-20T02:05:24;101904.63;;;11.88;58.01
48862;BME280;34681;49.188;-0.374;2023-03-20T02:08:01;101902.88;;;11.87;58.02
48862;BME280;34681;49.188;-0.374;2023-03-20T02:10:29;101908.75;;;11.94;57.54
48862;BME280;34681;49.188;-0.374;2023-03-20T02:12:55;101903.75;;;11.76;58.44
48862;BME280;34681;49.188;-0.374;2023-03-20T02:15:21;101908.88;;;11.70;58.55
48862;BME280;34681;49.188;-0.374;2023-03-20T02:17:46;101894.53;;;11.89;58.22
48862;BME280;34681;49.188;-0.374;2023-03-20T02:20:43;101894.91;;;11.95;58.06
48862;BME280;34681;49.188;-0.374;2023-03-20T02:26:34;101880.59;;;11.80;58.54
48862;BME280;34681;49.188;-0.374;2023-03-20T02:32:29;101885.06;;;11.81;58.76
48862;BME280;34681;49.188;-0.374;2023-03-20T02:46:34;101867.50;;;11.84;58.65
48862;BME280;34681;49.188;-0.374;2023-03-20T02:49:09;101861.63;;;11.55;59.17
48862;BME280;34681;49.188;-0.374;2023-03-20T02:51:48;101859.66;;;11.68;58.99
48862;BME280;34681;49.188;-0.374;2023-03-20T02:54:28;101858.63;;;11.69;58.75
48862;BME280;34681;49.188;-0.374;2023-03-20T02:57:34;101845.06;;;11.57;59.08
48862;BME280;34681;49.188;-0.374;2023-03-20T03:00:08;101852.56;;;11.43;59.69
48862;BME280;34681;49.188;-0.374;2023-03-20T03:02:38;101854.53;;;11.41;59.64
48862;BME280;34681;49.188;-0.374;2023-03-20T03:05:12;101856.66;;;11.60;59.22
48862;BME280;34681;49.188;-0.374;2023-03-20T03:07:41;101865.41;;;11.43;59.65
48862;BME280;34681;49.188;-0.374;2023-03-20T03:10:11;101857.44;;;11.51;59.18
48862;BME280;34681;49.188;-0.374;2023-03-20T03:12:42;101859.28;;;11.39;59.65
48862;BME280;34681;49.188;-0.374;2023-03-20T03:15:19;101864.41;;;11.44;59.63
48862;BME280;34681;49.188;-0.374;2023-03-20T03:17:47;101856.31;;;11.42;59.67
48862;BME280;34681;49.188;-0.374;2023-03-20T03:20:20;101859.16;;;11.41;59.96
48862;BME280;34681;49.188;-0.374;2023-03-20T03:22:46;101862.66;;;11.43;59.97
48862;BME280;34681;49.188;-0.374;2023-03-20T03:25:12;101862.53;;;11.44;59.65
48862;BME280;34681;49.188;-0.374;2023-03-20T03:27:40;101858.28;;;11.40;59.86
48862;BME280;34681;49.188;-0.374;2023-03-20T03:30:13;101862.75;;;11.41;60.01
48862;BME280;34681;49.188;-0.374;2023-03-20T03:32:49;101863.75;;;11.40;59.95
48862;BME280;34681;49.188;-0.374;2023-03-20T03:35:20;101860.88;;;11.64;59.25
48862;BME280;34681;49.188;-0.374;2023-03-20T03:37:57;101852.16;;;11.48;59.70
48862;BME280;34681;49.188;-0.374;2023-03-20T03:40:34;101855.66;;;11.39;59.92
48862;BME280;34681;49.188;-0.374;2023-03-20T03:43:13;101852.81;;;11.51;59.59
48862;BME280;34681;49.188;-0.374;2023-03-20T03:45:52;101853.69;;;11.52;59.79
48862;BME280;34681;49.188;-0.374;2023-03-20T03:48:33;101851.69;;;11.54;59.79
48862;BME280;34681;49.188;-0.374;2023-03-20T03:51:07;101853.44;;;11.44;59.95
48862;BME280;34681;49.188;-0.374;2023-03-20T03:53:38;101849.59;;;11.35;60.15
48862;BME280;34681;49.188;-0.374;2023-03-20T03:56:08;101838.00;;;11.43;59.94
48862;BME280;34681;49.188;-0.374;2023-03-20T03:58:47;101836.50;;;11.39;60.01
48862;BME280;34681;49.188;-0.374;2023-03-20T04:01:15;101835.25;;;11.32;60.11
48862;BME280;34681;49.188;-0.374;2023-03-20T04:03:45;101833.13;;;11.35;59.75
48862;BME280;34681;49.188;-0.374;2023-03-20T04:06:11;101839.13;;;11.29;60.00
48862;BME280;34681;49.188;-0.374;2023-03-20T04:08:40;101835.88;;;11.35;59.89
48862;BME280;34681;49.188;-0.374;2023-03-20T04:11:13;101837.97;;;11.32;59.88
48862;BME280;34681;49.188;-0.374;2023-03-20T04:13:39;101835.38;;;11.19;60.26
48862;BME280;34681;49.188;-0.374;2023-03-20T04:16:05;101839.47;;;11.24;60.15
48862;BME280;34681;49.188;-0.374;2023-03-20T04:18:31;101837.34;;;11.06;60.51
48862;BME280;34681;49.188;-0.374;2023-03-20T04:20:56;101841.59;;;11.10;60.59
48862;BME280;34681;49.188;-0.374;2023-03-20T04:23:21;101827.41;;;11.05;60.48
48862;BME280;34681;49.188;-0.374;2023-03-20T04:25:48;101837.88;;;11.22;60.35
48862;BME280;34681;49.188;-0.374;2023-03-20T04:28:13;101835.09;;;11.00;60.90
48862;BME280;34681;49.188;-0.374;2023-03-20T04:30:40;101840.63;;;11.11;61.15
48862;BME280;34681;49.188;-0.374;2023-03-20T04:33:07;101854.94;;;11.37;60.47
48862;BME280;34681;49.188;-0.374;2023-03-20T04:35:33;101850.59;;;11.34;60.70
48862;BME280;34681;49.188;-0.374;2023-03-20T04:37:58;101837.47;;;11.49;60.41
48862;BME280;34681;49.188;-0.374;2023-03-20T04:40:23;101836.63;;;11.37;60.49
48862;BME280;34681;49.188;-0.374;2023-03-20T04:42:49;101830.41;;;11.35;60.77
48862;BME280;34681;49.188;-0.374;2023-03-20T04:45:14;101829.66;;;11.44;60.67
48862;BME280;34681;49.188;-0.374;2023-03-20T04:47:40;101827.88;;;11.32;61.01
48862;BME280;34681;49.188;-0.374;2023-03-20T04:50:06;101817.94;;;11.42;60.87
48862;BME280;34681;49.188;-0.374;2023-03-20T04:52:31;101825.16;;;11.43;60.93
48862;BME280;34681;49.188;-0.374;2023-03-20T04:54:56;101824.25;;;11.65;60.51
48862;BME280;34681;49.188;-0.374;2023-03-20T04:57:22;101829.13;;;11.62;60.43
48862;BME280;34681;49.188;-0.374;2023-03-20T04:59:47;101821.03;;;11.49;60.71
48862;BME280;34681;49.188;-0.374;2023-03-20T05:02:12;101820.75;;;11.63;60.77
48862;BME280;34681;49.188;-0.374;2023-03-20T05:04:42;101819.66;;;11.54;60.74
48862;BME280;34681;49.188;-0.374;2023-03-20T05:07:08;101824.72;;;11.81;59.91
48862;BME280;34681;49.188;-0.374;2023-03-20T05:09:33;101824.59;;;11.83;60.15
48862;BME280;34681;49.188;-0.374;2023-03-20T05:11:58;101824.34;;;11.75;60.09
48862;BME280;34681;49.188;-0.374;2023-03-20T05:14:24;101820.03;;;11.84;60.15
48862;BME280;34681;49.188;-0.374;2023-03-20T05:16:49;101814.78;;;11.80;60.36
48862;BME280;34681;49.188;-0.374;2023-03-20T05:19:15;101823.09;;;11.79;60.50
48862;BME280;34681;49.188;-0.374;2023-03-20T05:21:41;101802.78;;;11.81;60.28
48862;BME280;34681;49.188;-0.374;2023-03-20T05:24:06;101801.78;;;11.82;60.25
48862;BME280;34681;49.188;-0.374;2023-03-20T05:26:32;101800.06;;;11.70;60.26
48862;BME280;34681;49.188;-0.374;2023-03-20T05:28:57;101808.56;;;11.67;60.72
48862;BME280;34681;49.188;-0.374;2023-03-20T05:31:22;101814.53;;;11.61;60.69
48862;BME280;34681;49.188;-0.374;2023-03-20T05:33:48;101817.91;;;11.53;60.90
48862;BME280;34681;49.188;-0.374;2023-03-20T05:36:13;101814.41;;;11.63;60.56
48862;BME280;34681;49.188;-0.374;2023-03-20T05:38:38;101822.50;;;11.87;59.98
48862;BME280;34681;49.188;-0.374;2023-03-20T05:41:04;101813.38;;;11.75;60.50
48862;BME280;34681;49.188;-0.374;2023-03-20T05:43:29;101810.38;;;11.78;60.28
48862;BME280;34681;49.188;-0.374;2023-03-20T05:45:56;101806.06;;;11.64;60.58
48862;BME280;34681;49.188;-0.374;2023-03-20T05:48:22;101809.78;;;11.86;60.33
48862;BME280;34681;49.188;-0.374;2023-03-20T05:50:47;101811.38;;;11.88;60.16
48862;BME280;34681;49.188;-0.374;2023-03-20T05:53:13;101812.75;;;11.94;60.05
48862;BME280;34681;49.188;-0.374;2023-03-20T05:55:38;101816.09;;;11.97;59.80
48862;BME280;34681;49.188;-0.374;2023-03-20T05:58:05;101813.84;;;11.91;59.89
48862;BME280;34681;49.188;-0.374;2023-03-20T06:00:31;101807.41;;;11.92;59.99
48862;BME280;34681;49.188;-0.374;2023-03-20T06:02:56;101815.94;;;11.99;59.96
48862;BME280;34681;49.188;-0.374;2023-03-20T06:05:21;101814.28;;;12.07;59.71
48862;BME280;34681;49.188;-0.374;2023-03-20T06:07:47;101827.13;;;12.18;59.32
48862;BME280;34681;49.188;-0.374;2023-03-20T06:10:12;101829.94;;;11.96;59.62
48862;BME280;34681;49.188;-0.374;2023-03-20T06:12:37;101832.31;;;11.89;59.95
48862;BME280;34681;49.188;-0.374;2023-03-20T06:15:03;101831.63;;;12.08;59.66
48862;BME280;34681;49.188;-0.374;2023-03-20T06:17:29;101833.13;;;12.12;59.39
48862;BME280;34681;49.188;-0.374;2023-03-20T06:19:55;101826.13;;;12.08;59.32
48862;BME280;34681;49.188;-0.374;2023-03-20T06:22:20;101829.16;;;12.05;59.67
48862;BME280;34681;49.188;-0.374;2023-03-20T06:24:45;101824.53;;;12.05;59.57
48862;BME280;34681;49.188;-0.374;2023-03-20T06:27:11;101824.53;;;12.05;59.74
48862;BME280;34681;49.188;-0.374;2023-03-20T06:29:36;101829.00;;;12.18;59.29
48862;BME280;34681;49.188;-0.374;2023-03-20T06:32:02;101826.09;;;11.87;59.17
48862;BME280;34681;49.188;-0.374;2023-03-20T06:34:27;101821.72;;;11.96;59.43
48862;BME280;34681;49.188;-0.374;2023-03-20T06:36:54;101832.63;;;12.18;59.15
48862;BME280;34681;49.188;-0.374;2023-03-20T06:39:19;101824.31;;;12.29;58.71
48862;BME280;34681;49.188;-0.374;2023-03-20T06:41:45;101833.63;;;12.38;58.51
48862;BME280;34681;49.188;-0.374;2023-03-20T06:44:10;101830.22;;;12.25;58.59
48862;BME280;34681;49.188;-0.374;2023-03-20T06:46:36;101829.00;;;12.38;58.49
48862;BME280;34681;49.188;-0.374;2023-03-20T06:49:02;101834.03;;;12.54;58.07
48862;BME280;34681;49.188;-0.374;2023-03-20T06:51:27;101828.06;;;12.28;58.36
48862;BME280;34681;49.188;-0.374;2023-03-20T06:53:53;101833.34;;;12.41;58.46
48862;BME280;34681;49.188;-0.374;2023-03-20T06:56:18;101837.94;;;12.52;58.05
48862;BME280;34681;49.188;-0.374;2023-03-20T06:58:44;101841.75;;;12.60;57.85
48862;BME280;34681;49.188;-0.374;2023-03-20T07:01:11;101837.03;;;12.30;57.87
48862;BME280;34681;49.188;-0.374;2023-03-20T07:03:38;101844.19;;;12.22;58.40
48862;BME280;34681;49.188;-0.374;2023-03-20T07:06:04;101855.59;;;12.38;57.94
48862;BME280;34681;49.188;-0.374;2023-03-20T07:08:31;101848.84;;;12.63;57.78
48862;BME280;34681;49.188;-0.374;2023-03-20T07:10:56;101852.81;;;12.70;57.47
48862;BME280;34681;49.188;-0.374;2023-03-20T07:13:21;101852.00;;;12.79;57.48
48862;BME280;34681;49.188;-0.374;2023-03-20T07:15:47;101852.47;;;12.84;57.31
48862;BME280;34681;49.188;-0.374;2023-03-20T07:18:12;101853.75;;;12.80;57.40
48862;BME280;34681;49.188;-0.374;2023-03-20T07:20:37;101854.41;;;12.93;57.73
48862;BME280;34681;49.188;-0.374;2023-03-20T07:23:03;101856.00;;;12.96;57.84
48862;BME280;34681;49.188;-0.374;2023-03-20T07:25:28;101860.09;;;13.02;57.42
48862;BME280;34681;49.188;-0.374;2023-03-20T07:27:53;101864.25;;;13.17;57.10
48862;BME280;34681;49.188;-0.374;2023-03-20T07:30:19;101856.50;;;13.32;56.58
48862;BME280;34681;49.188;-0.374;2023-03-20T07:32:44;101859.44;;;13.40;56.47
48862;BME280;34681;49.188;-0.374;2023-03-20T07:35:10;101865.66;;;13.32;56.62
48862;BME280;34681;49.188;-0.374;2023-03-20T07:37:36;101866.41;;;13.44;55.83
48862;BME280;34681;49.188;-0.374;2023-03-20T07:40:02;101863.78;;;13.33;56.43
48862;BME280;34681;49.188;-0.374;2023-03-20T07:42:28;101865.28;;;13.56;55.86
48862;BME280;34681;49.188;-0.374;2023-03-20T07:44:53;101856.81;;;13.69;55.86
48862;BME280;34681;49.188;-0.374;2023-03-20T07:47:18;101858.31;;;13.92;55.50
48862;BME280;34681;49.188;-0.374;2023-03-20T07:49:44;101847.78;;;14.17;54.79
48862;BME280;34681;49.188;-0.374;2023-03-20T07:52:11;101849.97;;;14.32;54.70
48862;BME280;34681;49.188;-0.374;2023-03-20T07:54:36;101857.38;;;14.32;54.74
48862;BME280;34681;49.188;-0.374;2023-03-20T07:57:02;101855.50;;;14.52;54.34
48862;BME280;34681;49.188;-0.374;2023-03-20T07:59:29;101857.09;;;14.54;55.32
48862;BME280;34681;49.188;-0.374;2023-03-20T08:01:55;101851.28;;;14.67;55.02
48862;BME280;34681;49.188;-0.374;2023-03-20T08:04:20;101854.47;;;14.63;55.33
48862;BME280;34681;49.188;-0.374;2023-03-20T08:06:47;101850.44;;;14.67;55.30
48862;BME280;34681;49.188;-0.374;2023-03-20T08:09:13;101846.19;;;14.92;55.34
48862;BME280;34681;49.188;-0.374;2023-03-20T08:11:38;101841.94;;;14.97;55.58
48862;BME280;34681;49.188;-0.374;2023-03-20T08:14:03;101845.06;;;15.22;55.15
48862;BME280;34681;49.188;-0.374;2023-03-20T08:16:29;101845.41;;;15.46;54.32
48862;BME280;34681;49.188;-0.374;2023-03-20T08:18:54;101841.88;;;15.54;54.55
48862;BME280;34681;49.188;-0.374;2023-03-20T08:21:28;101846.53;;;15.90;53.44
48862;BME280;34681;49.188;-0.374;2023-03-20T08:23:54;101841.47;;;15.86;53.53
48862;BME280;34681;49.188;-0.374;2023-03-20T08:26:20;101841.38;;;15.95;52.88
48862;BME280;34681;49.188;-0.374;2023-03-20T08:28:45;101842.75;;;15.91;52.79
48862;BME280;34681;49.188;-0.374;2023-03-20T08:31:11;101840.75;;;15.84;53.05
48862;BME280;34681;49.188;-0.374;2023-03-20T08:33:37;101841.34;;;15.78;53.28
48862;BME280;34681;49.188;-0.374;2023-03-20T08:36:02;101840.84;;;15.55;53.58
48862;BME280;34681;49.188;-0.374;2023-03-20T08:38:28;101838.84;;;15.47;54.01
48862;BME280;34681;49.188;-0.374;2023-03-20T08:40:53;101839.88;;;15.56;53.84
48862;BME280;34681;49.188;-0.374;2023-03-20T08:43:22;101843.06;;;15.61;54.13
48862;BME280;34681;49.188;-0.374;2023-03-20T08:45:48;101836.78;;;15.68;53.74
48862;BME280;34681;49.188;-0.374;2023-03-20T08:48:13;101841.34;;;15.78;53.61
48862;BME280;34681;49.188;-0.374;2023-03-20T08:50:38;101842.81;;;15.82;53.60
48862;BME280;34681;49.188;-0.374;2023-03-20T08:53:05;101848.44;;;15.80;54.15
48862;BME280;34681;49.188;-0.374;2023-03-20T08:55:30;101850.75;;;15.85;54.02
48862;BME280;34681;49.188;-0.374;2023-03-20T08:57:56;101840.75;;;15.84;54.72
48862;BME280;34681;49.188;-0.374;2023-03-20T09:00:22;101847.16;;;16.02;54.55
48862;BME280;34681;49.188;-0.374;2023-03-20T09:02:49;101847.84;;;16.32;54.46
48862;BME280;34681;49.188;-0.374;2023-03-20T09:05:15;101853.88;;;16.35;54.41
48862;BME280;34681;49.188;-0.374;2023-03-20T09:07:40;101853.50;;;16.48;54.26
48862;BME280;34681;49.188;-0.374;2023-03-20T09:10:07;101853.88;;;16.53;54.41
48862;BME280;34681;49.188;-0.374;2023-03-20T09:12:33;101860.84;;;16.75;54.43
48862;BME280;34681;49.188;-0.374;2023-03-20T09:14:58;101859.13;;;16.74;55.10
48862;BME280;34681;49.188;-0.374;2023-03-20T09:17:24;101857.31;;;16.47;56.21
48862;BME280;34681;49.188;-0.374;2023-03-20T09:19:49;101864.41;;;16.49;56.52
48862;BME280;34681;49.188;-0.374;2023-03-20T09:22:15;101860.59;;;16.68;56.05
48862;BME280;34681;49.188;-0.374;2023-03-20T09:24:42;101861.31;;;16.70;56.28
48862;BME280;34681;49.188;-0.374;2023-03-20T09:27:08;101861.63;;;16.85;56.40
48862;BME280;34681;49.188;-0.374;2023-03-20T09:29:34;101849.69;;;17.10;55.82
48862;BME280;34681;49.188;-0.374;2023-03-20T09:31:59;101840.34;;;17.37;55.41
48862;BME280;34681;49.188;-0.374;2023-03-20T09:34:25;101845.19;;;17.35;55.68
48862;BME280;34681;49.188;-0.374;2023-03-20T09:36:51;101851.66;;;17.86;54.56
48862;BME280;34681;49.188;-0.374;2023-03-20T09:39:16;101852.72;;;17.85;55.22
48862;BME280;34681;49.188;-0.374;2023-03-20T09:41:47;101855.22;;;18.13;54.19
48862;BME280;34681;49.188;-0.374;2023-03-20T09:47:23;101865.81;;;18.25;53.76
48862;BME280;34681;49.188;-0.374;2023-03-20T09:49:57;101870.03;;;17.61;53.64
48862;BME280;34681;49.188;-0.374;2023-03-20T09:52:30;101865.09;;;17.39;54.97
48862;BME280;34681;49.188;-0.374;2023-03-20T09:55:09;101862.69;;;17.44;54.38
48862;BME280;34681;49.188;-0.374;2023-03-20T09:57:39;101860.06;;;17.34;54.70
48862;BME280;34681;49.188;-0.374;2023-03-20T10:00:19;101858.34;;;17.07;55.00
48862;BME280;34681;49.188;-0.374;2023-03-20T10:02:48;101863.84;;;16.81;55.48
48862;BME280;34681;49.188;-0.374;2023-03-20T10:07:52;101862.66;;;16.66;56.29
48862;BME280;34681;49.188;-0.374;2023-03-20T10:10:19;101863.81;;;16.46;56.86
48862;BME280;34681;49.188;-0.374;2023-03-20T10:13:01;101863.97;;;16.62;56.31
48862;BME280;34681;49.188;-0.374;2023-03-20T10:20:38;101867.13;;;16.67;55.91
48862;BME280;34681;49.188;-0.374;2023-03-20T10:23:15;101862.47;;;16.68;55.96
48862;BME280;34681;49.188;-0.374;2023-03-20T10:25:48;101861.09;;;16.81;55.65
48862;BME280;34681;49.188;-0.374;2023-03-20T10:28:31;101857.19;;;16.92;55.58
48862;BME280;34681;49.188;-0.374;2023-03-20T10:31:14;101862.06;;;16.98;55.05
48862;BME280;34681;49.188;-0.374;2023-03-20T10:36:53;101864.84;;;17.24;54.67
48862;BME280;34681;49.188;-0.374;2023-03-20T10:42:18;101868.38;;;17.08;55.20
48862;BME280;34681;49.188;-0.374;2023-03-20T10:44:49;101859.47;;;16.97;55.38
48862;BME280;34681;49.188;-0.374;2023-03-20T10:47:17;101860.13;;;16.91;55.29
48862;BME280;34681;49.188;-0.374;2023-03-20T10:49:48;101850.44;;;16.95;55.28
48862;BME280;34681;49.188;-0.374;2023-03-20T10:52:20;101860.94;;;17.09;55.06
48862;BME280;34681;49.188;-0.374;2023-03-20T10:54:54;101853.84;;;17.06;54.58
48862;BME280;34681;49.188;-0.374;2023-03-20T10:57:26;101853.16;;;17.12;54.61
48862;BME280;34681;49.188;-0.374;2023-03-20T10:59:57;101849.69;;;16.84;54.49
48862;BME280;34681;49.188;-0.374;2023-03-20T11:02:27;101856.72;;;16.97;54.54
48862;BME280;34681;49.188;-0.374;2023-03-20T11:04:53;101849.88;;;17.09;54.34
48862;BME280;34681;49.188;-0.374;2023-03-20T11:12:33;101851.69;;;17.26;54.41
48862;BME280;34681;49.188;-0.374;2023-03-20T11:15:03;101836.00;;;17.69;54.12
48862;BME280;34681;49.188;-0.374;2023-03-20T11:17:38;101846.81;;;17.80;53.54
48862;BME280;34681;49.188;-0.374;2023-03-20T11:20:04;101845.75;;;17.39;54.35
48862;BME280;34681;49.188;-0.374;2023-03-20T11:22:30;101844.91;;;17.47;53.79
48862;BME280;34681;49.188;-0.374;2023-03-20T11:25:00;101838.97;;;17.33;54.04
48862;BME280;34681;49.188;-0.374;2023-03-20T11:27:29;101837.41;;;17.31;54.17
48862;BME280;34681;49.188;-0.374;2023-03-20T11:29:56;101839.59;;;17.27;54.23
48862;BME280;34681;49.188;-0.374;2023-03-20T11:32:38;101840.13;;;17.57;53.19
48862;BME280;34681;49.188;-0.374;2023-03-20T11:35:25;101839.59;;;17.27;53.94
48862;BME280;34681;49.188;-0.374;2023-03-20T11:38:06;101838.78;;;17.35;53.87
48862;BME280;34681;49.188;-0.374;2023-03-20T11:40:32;101828.72;;;17.60;53.04
48862;BME280;34681;49.188;-0.374;2023-03-20T11:43:02;101834.16;;;17.78;53.09
48862;BME280;34681;49.188;-0.374;2023-03-20T11:45:45;101825.88;;;17.86;53.21
48862;BME280;34681;49.188;-0.374;2023-03-20T11:48:19;101823.56;;;18.15;52.04
48862;BME280;34681;49.188;-0.374;2023-03-20T11:51:01;101825.06;;;17.93;52.50
48862;BME280;34681;49.188;-0.374;2023-03-20T11:53:35;101829.72;;;17.93;52.65
48862;BME280;34681;49.188;-0.374;2023-03-20T11:56:19;101821.81;;;18.14;52.20
48862;BME280;34681;49.188;-0.374;2023-03-20T12:01:41;101812.66;;;18.14;51.51
48862;BME280;34681;49.188;-0.374;2023-03-20T12:04:34;101807.09;;;18.14;51.63
48862;BME280;34681;49.188;-0.374;2023-03-20T12:07:15;101808.47;;;18.10;52.01
48862;BME280;34681;49.188;-0.374;2023-03-20T12:09:43;101807.63;;;18.17;51.89
48862;BME280;34681;49.188;-0.374;2023-03-20T12:17:54;101805.41;;;18.53;51.03
48862;BME280;34681;49.188;-0.374;2023-03-20T12:20:38;101799.72;;;18.79;50.20
48862;BME280;34681;49.188;-0.374;2023-03-20T12:28:23;101793.72;;;19.23;49.82
48862;BME280;34681;49.188;-0.374;2023-03-20T12:36:31;101775.00;;;19.17;48.21
48862;BME280;34681;49.188;-0.374;2023-03-20T12:38:57;101778.31;;;19.13;48.94
48862;BME280;34681;49.188;-0.374;2023-03-20T12:41:29;101775.69;;;19.19;48.56
48862;BME280;34681;49.188;-0.374;2023-03-20T12:49:43;101773.44;;;19.23;48.25
48862;BME280;34681;49.188;-0.374;2023-03-20T12:55:09;101763.16;;;19.31;48.34
48862;BME280;34681;49.188;-0.374;2023-03-20T13:00:29;101757.03;;;18.97;47.94
48862;BME280;34681;49.188;-0.374;2023-03-20T13:03:01;101750.31;;;18.83;48.18
48862;BME280;34681;49.188;-0.374;2023-03-20T13:05:42;101749.09;;;18.53;48.73
48862;BME280;34681;49.188;-0.374;2023-03-20T13:13:34;101741.03;;;17.68;50.90
48862;BME280;34681;49.188;-0.374;2023-03-20T13:19:08;101736.22;;;17.71;51.63
48862;BME280;34681;49.188;-0.374;2023-03-20T13:21:45;101738.00;;;17.80;51.96
48862;BME280;34681;49.188;-0.374;2023-03-20T13:24:23;101735.00;;;17.65;51.93
48862;BME280;34681;49.188;-0.374;2023-03-20T13:27:22;101734.19;;;17.73;51.88
48862;BME280;34681;49.188;-0.374;2023-03-20T13:37:47;101720.59;;;17.61;52.41
48862;BME280;34681;49.188;-0.374;2023-03-20T13:43:02;101710.75;;;17.59;52.83
48862;BME280;34681;49.188;-0.374;2023-03-20T13:45:41;101711.03;;;17.31;53.68
48862;BME280;34681;49.188;-0.374;2023-03-20T13:48:36;101713.84;;;17.48;53.77
48862;BME280;34681;49.188;-0.374;2023-03-20T13:57:14;101710.38;;;17.54;54.26
48862;BME280;34681;49.188;-0.374;2023-03-20T14:03:07;101710.19;;;17.39;54.58
48862;BME280;34681;49.188;-0.374;2023-03-20T14:05:38;101696.47;;;17.72;54.11
48862;BME280;34681;49.188;-0.374;2023-03-20T14:13:49;101680.38;;;17.83;53.63
48862;BME280;34681;49.188;-0.374;2023-03-20T14:16:17;101685.94;;;17.91;53.54
48862;BME280;34681;49.188;-0.374;2023-03-20T14:18:48;101686.09;;;17.98;53.44
48862;BME280;34681;49.188;-0.374;2023-03-20T14:21:19;101678.84;;;18.05;53.64
48862;BME280;34681;49.188;-0.374;2023-03-20T14:23:49;101677.13;;;18.12;53.56
48862;BME280;34681;49.188;-0.374;2023-03-20T14:26:29;101680.56;;;18.31;53.38
48862;BME280;34681;49.188;-0.374;2023-03-20T14:29:18;101685.91;;;18.40;53.56
48862;BME280;34681;49.188;-0.374;2023-03-20T14:31:48;101690.06;;;18.36;53.75
48862;BME280;34681;49.188;-0.374;2023-03-20T14:34:21;101681.56;;;18.54;53.21
48862;BME280;34681;49.188;-0.374;2023-03-20T14:36:58;101673.38;;;18.77;52.90